createdAt,value
2018-12-09T00:00:33.567Z,63.97
2018-12-09T00:01:36.099Z,63.83
2018-12-09T00:02:38.551Z,64.06
2018-12-09T00:03:40.975Z,63.98
2018-12-09T00:04:43.415Z,64.12
2018-12-09T00:05:45.859Z,63.31
2018-12-09T00:06:48.728Z,63.52
2018-12-09T00:07:51.174Z,63.62
2018-12-09T00:08:53.618Z,63.27
2018-12-09T00:09:56.051Z,63.49
2018-12-09T00:10:58.523Z,63.66
2018-12-09T00:12:01.169Z,63.61
2018-12-09T00:13:03.606Z,63.45
2018-12-09T00:14:06.035Z,63.95
2018-12-09T00:15:08.617Z,63.73
2018-12-09T00:16:11.086Z,63.73
2018-12-09T00:17:13.515Z,64.02
2018-12-09T00:18:15.946Z,63.85
2018-12-09T00:19:18.390Z,63.51
2018-12-09T00:20:20.818Z,63.57
2018-12-09T00:21:23.348Z,63.37
2018-12-09T00:22:25.815Z,63.12
2018-12-09T00:23:28.276Z,63.10
2018-12-09T00:24:30.722Z,63.02
2018-12-09T00:25:33.168Z,62.76
2018-12-09T00:26:35.619Z,63.10
2018-12-09T00:27:38.134Z,62.74
2018-12-09T00:28:40.642Z,62.99
2018-12-09T00:29:43.108Z,62.69
2018-12-09T00:30:45.543Z,62.77
2018-12-09T00:31:48.000Z,62.31
2018-12-09T00:32:50.465Z,62.37
2018-12-09T00:33:55.910Z,62.44
2018-12-09T00:34:58.384Z,62.63
2018-12-09T00:36:01.051Z,62.60
2018-12-09T00:37:03.587Z,62.61
2018-12-09T00:38:06.099Z,62.41
2018-12-09T00:39:08.531Z,62.84
2018-12-09T00:40:10.969Z,62.63
2018-12-09T00:41:13.508Z,62.53
2018-12-09T00:42:15.986Z,62.51
2018-12-09T00:43:18.449Z,62.52
2018-12-09T00:44:20.895Z,62.61
2018-12-09T00:45:23.336Z,62.52
2018-12-09T00:46:25.771Z,62.54
2018-12-09T00:47:28.258Z,62.14
2018-12-09T00:48:30.707Z,62.14
2018-12-09T00:49:33.156Z,62.06
2018-12-09T00:50:35.593Z,62.22
2018-12-09T00:51:38.036Z,62.43
2018-12-09T00:52:40.470Z,62.72
2018-12-09T00:53:43.005Z,62.52
2018-12-09T00:54:45.474Z,62.71
2018-12-09T00:55:47.899Z,62.53
2018-12-09T00:56:50.335Z,62.60
2018-12-09T00:57:52.821Z,62.39
2018-12-09T00:58:55.346Z,62.39
2018-12-09T00:59:57.785Z,62.57
2018-12-09T01:01:00.272Z,62.58
2018-12-09T01:02:04.705Z,62.62
2018-12-09T01:03:07.161Z,62.39
2018-12-09T01:04:09.620Z,62.04
2018-12-09T01:05:12.232Z,62.18
2018-12-09T01:06:14.662Z,62.27
2018-12-09T01:07:17.115Z,62.32
2018-12-09T01:08:19.591Z,62.14
2018-12-09T01:09:22.043Z,62.10
2018-12-09T01:10:24.485Z,62.27
2018-12-09T01:11:27.002Z,62.23
2018-12-09T01:12:29.447Z,62.31
2018-12-09T01:13:31.914Z,61.88
2018-12-09T01:14:34.372Z,61.95
2018-12-09T01:15:36.821Z,61.91
2018-12-09T01:16:39.277Z,62.13
2018-12-09T01:17:41.800Z,61.79
2018-12-09T01:18:44.254Z,61.81
2018-12-09T01:19:46.699Z,62.09
2018-12-09T01:20:49.228Z,62.03
2018-12-09T01:21:51.655Z,61.64
2018-12-09T01:22:54.084Z,61.58
2018-12-09T01:23:56.528Z,61.76
2018-12-09T01:24:58.998Z,61.78
2018-12-09T01:26:01.438Z,61.47
2018-12-09T01:27:03.891Z,61.52
2018-12-09T01:28:06.355Z,61.54
2018-12-09T01:29:08.824Z,61.48
2018-12-09T01:30:11.282Z,61.63
2018-12-09T01:31:13.727Z,61.64
2018-12-09T01:32:16.272Z,61.77
2018-12-09T01:33:18.718Z,62.06
2018-12-09T01:34:21.280Z,62.11
2018-12-09T01:35:23.775Z,62.04
2018-12-09T01:36:26.207Z,62.03
2018-12-09T01:37:28.670Z,62.22
2018-12-09T01:38:31.107Z,62.77
2018-12-09T01:39:33.683Z,62.86
2018-12-09T01:40:41.965Z,63.05
2018-12-09T01:41:44.829Z,63.27
2018-12-09T01:42:47.301Z,63.30
2018-12-09T01:43:49.742Z,63.58
2018-12-09T01:44:52.193Z,63.23
2018-12-09T01:45:54.647Z,63.50
2018-12-09T01:46:57.092Z,63.55
2018-12-09T01:47:59.527Z,63.88
2018-12-09T01:49:01.959Z,63.87
2018-12-09T01:50:05.797Z,64.00
2018-12-09T01:51:08.340Z,64.24
2018-12-09T01:52:10.778Z,64.09
2018-12-09T01:53:25.191Z,64.07
2018-12-09T01:54:27.623Z,64.52
2018-12-09T01:55:30.080Z,64.86
2018-12-09T01:56:32.541Z,65.43
2018-12-09T01:57:34.979Z,65.63
2018-12-09T01:58:37.519Z,65.60
2018-12-09T01:59:39.970Z,65.74
2018-12-09T02:00:42.511Z,65.59
2018-12-09T02:01:45.460Z,65.47
2018-12-09T02:02:47.896Z,65.47
2018-12-09T02:03:50.340Z,65.15
2018-12-09T02:04:52.783Z,64.95
2018-12-09T02:05:56.336Z,65.08
2018-12-09T02:06:58.785Z,64.80
2018-12-09T02:08:01.229Z,64.69
2018-12-09T02:09:05.644Z,64.35
2018-12-09T02:10:08.173Z,64.17
2018-12-09T02:11:10.638Z,64.28
2018-12-09T02:12:13.084Z,64.40
2018-12-09T02:13:15.561Z,64.38
2018-12-09T02:14:18.000Z,64.25
2018-12-09T02:15:20.439Z,64.15
2018-12-09T02:16:23.000Z,64.12
2018-12-09T02:17:25.628Z,64.13
2018-12-09T02:18:28.479Z,64.27
2018-12-09T02:19:30.920Z,64.04
2018-12-09T02:20:33.379Z,64.12
2018-12-09T02:21:35.844Z,64.21
2018-12-09T02:22:38.311Z,63.88
2018-12-09T02:23:40.803Z,63.94
2018-12-09T02:24:43.246Z,64.17
2018-12-09T02:25:45.720Z,63.93
2018-12-09T02:26:48.178Z,63.85
2018-12-09T02:27:50.623Z,63.86
2018-12-09T02:28:53.059Z,63.88
2018-12-09T02:29:55.515Z,64.36
2018-12-09T02:30:58.155Z,64.88
2018-12-09T02:32:00.619Z,64.88
2018-12-09T02:33:03.090Z,65.07
2018-12-09T02:34:05.965Z,65.33
2018-12-09T02:35:08.813Z,65.64
2018-12-09T02:36:11.328Z,65.45
2018-12-09T02:37:13.796Z,65.22
2018-12-09T02:38:16.271Z,65.17
2018-12-09T02:39:18.817Z,65.05
2018-12-09T02:40:21.264Z,64.84
2018-12-09T02:41:23.726Z,64.58
2018-12-09T02:42:26.288Z,64.35
2018-12-09T02:43:28.741Z,64.08
2018-12-09T02:44:31.187Z,64.26
2018-12-09T02:45:34.123Z,64.25
2018-12-09T02:46:36.556Z,64.20
2018-12-09T02:47:39.013Z,64.29
2018-12-09T02:48:41.449Z,64.16
2018-12-09T02:49:43.888Z,64.14
2018-12-09T02:50:46.551Z,64.37
2018-12-09T02:51:49.416Z,64.71
2018-12-09T02:52:51.889Z,64.77
2018-12-09T02:53:54.423Z,64.94
2018-12-09T02:54:56.967Z,64.69
2018-12-09T02:55:59.528Z,64.54
2018-12-09T02:57:01.968Z,64.59
2018-12-09T02:58:04.544Z,64.85
2018-12-09T02:59:07.021Z,64.82
2018-12-09T03:00:09.546Z,64.96
2018-12-09T03:01:12.065Z,65.30
2018-12-09T03:02:14.502Z,65.33
2018-12-09T03:03:16.979Z,65.11
2018-12-09T03:04:19.447Z,65.31
2018-12-09T03:05:21.900Z,66.18
2018-12-09T03:06:24.335Z,65.84
2018-12-09T03:07:27.190Z,66.41
2018-12-09T03:08:29.704Z,67.12
2018-12-09T03:09:32.147Z,67.84
2018-12-09T03:10:34.577Z,68.45
2018-12-09T03:11:37.119Z,68.60
2018-12-09T03:12:41.418Z,69.12
2018-12-09T03:13:44.032Z,69.61
2018-12-09T03:14:46.486Z,69.92
2018-12-09T03:15:48.927Z,70.38
2018-12-09T03:16:51.368Z,70.29
2018-12-09T03:17:53.814Z,70.20
2018-12-09T03:18:56.272Z,70.62
2018-12-09T03:19:58.719Z,70.65
2018-12-09T03:21:01.167Z,70.69
2018-12-09T03:22:03.865Z,70.92
2018-12-09T03:23:06.610Z,70.35
2018-12-09T03:24:09.659Z,70.50
2018-12-09T03:25:12.278Z,70.59
2018-12-09T03:26:14.720Z,70.94
2018-12-09T03:27:17.273Z,70.85
2018-12-09T03:28:19.715Z,70.50
2018-12-09T03:29:22.180Z,70.77
2018-12-09T03:30:24.826Z,70.68
2018-12-09T03:31:27.393Z,70.68
2018-12-09T03:32:29.848Z,70.99
2018-12-09T03:33:34.452Z,70.80
2018-12-09T03:34:36.779Z,70.92
2018-12-09T03:35:39.251Z,70.96
2018-12-09T03:36:41.687Z,70.95
2018-12-09T03:37:44.154Z,71.59
2018-12-09T03:38:46.590Z,70.85
2018-12-09T03:39:49.454Z,71.04
2018-12-09T03:40:51.994Z,70.89
2018-12-09T03:41:54.423Z,70.52
2018-12-09T03:42:56.867Z,70.83
2018-12-09T03:43:59.328Z,70.67
2018-12-09T03:45:01.785Z,70.64
2018-12-09T03:46:04.330Z,70.58
2018-12-09T03:47:06.772Z,70.76
2018-12-09T03:48:09.215Z,70.86
2018-12-09T03:49:11.695Z,70.90
2018-12-09T03:50:14.160Z,70.71
2018-12-09T03:51:16.606Z,70.39
2018-12-09T03:52:19.062Z,70.61
2018-12-09T03:53:21.558Z,70.85
2018-12-09T03:54:24.003Z,70.60
2018-12-09T03:55:26.985Z,70.30
2018-12-09T03:56:29.439Z,70.09
2018-12-09T03:57:31.885Z,69.84
2018-12-09T03:58:34.332Z,69.31
2018-12-09T03:59:36.802Z,69.82
2018-12-09T04:00:39.360Z,69.72
2018-12-09T04:01:41.900Z,69.63
2018-12-09T04:02:44.349Z,69.17
2018-12-09T04:03:46.807Z,69.48
2018-12-09T04:04:49.359Z,68.96
2018-12-09T04:05:51.807Z,68.69
2018-12-09T04:06:54.254Z,69.10
2018-12-09T04:07:56.696Z,69.26
2018-12-09T04:08:59.143Z,69.41
2018-12-09T04:10:02.011Z,68.62
2018-12-09T04:11:04.567Z,69.08
2018-12-09T04:12:07.016Z,68.87
2018-12-09T04:13:09.538Z,69.08
2018-12-09T04:14:11.981Z,68.67
2018-12-09T04:15:14.523Z,68.53
2018-12-09T04:16:16.976Z,68.53
2018-12-09T04:17:19.423Z,68.12
2018-12-09T04:18:21.880Z,67.85
2018-12-09T04:19:24.311Z,68.17
2018-12-09T04:20:26.758Z,67.82
2018-12-09T04:21:29.216Z,67.54
2018-12-09T04:22:31.679Z,67.72
2018-12-09T04:23:34.120Z,67.51
2018-12-09T04:24:36.577Z,67.16
2018-12-09T04:25:39.531Z,66.85
2018-12-09T04:26:41.993Z,67.25
2018-12-09T04:27:44.452Z,67.23
2018-12-09T04:28:46.993Z,66.77
2018-12-09T04:29:49.447Z,66.79
2018-12-09T04:30:51.877Z,66.62
2018-12-09T04:31:54.443Z,66.75
2018-12-09T04:32:56.883Z,66.51
2018-12-09T04:33:59.313Z,66.12
2018-12-09T04:35:01.773Z,66.17
2018-12-09T04:36:04.218Z,65.87
2018-12-09T04:37:06.667Z,66.14
2018-12-09T04:38:09.115Z,66.14
2018-12-09T04:39:11.561Z,66.49
2018-12-09T04:40:14.428Z,66.66
2018-12-09T04:41:17.325Z,66.77
2018-12-09T04:42:19.774Z,66.59
2018-12-09T04:43:22.323Z,66.52
2018-12-09T04:44:24.795Z,66.36
2018-12-09T04:45:27.324Z,66.41
2018-12-09T04:46:29.775Z,66.45
2018-12-09T04:47:32.235Z,66.62
2018-12-09T04:48:34.730Z,66.83
2018-12-09T04:49:37.188Z,66.88
2018-12-09T04:50:39.643Z,66.82
2018-12-09T04:51:53.101Z,67.00
2018-12-09T04:52:55.643Z,67.30
2018-12-09T04:53:58.192Z,67.58
2018-12-09T04:55:01.331Z,67.65
2018-12-09T04:56:03.907Z,67.67
2018-12-09T04:57:06.394Z,68.08
2018-12-09T04:58:08.842Z,67.85
2018-12-09T04:59:18.604Z,68.01
2018-12-09T05:00:33.100Z,68.20
2018-12-09T05:01:35.708Z,68.30
2018-12-09T05:02:38.215Z,68.57
2018-12-09T05:03:40.987Z,69.07
2018-12-09T05:04:43.458Z,69.17
2018-12-09T05:05:45.969Z,68.87
2018-12-09T05:06:48.450Z,68.75
2018-12-09T05:07:50.913Z,69.27
2018-12-09T05:08:53.377Z,69.24
2018-12-09T05:09:55.971Z,69.52
2018-12-09T05:10:58.500Z,69.81
2018-12-09T05:12:00.956Z,69.53
2018-12-09T05:13:03.415Z,69.83
2018-12-09T05:14:05.941Z,69.69
2018-12-09T05:15:08.563Z,69.50
2018-12-09T05:16:11.112Z,69.58
2018-12-09T05:17:13.542Z,69.52
2018-12-09T05:18:16.342Z,69.80
2018-12-09T05:19:19.366Z,69.81
2018-12-09T05:20:22.163Z,69.91
2018-12-09T05:21:24.644Z,70.04
2018-12-09T05:22:27.091Z,69.59
2018-12-09T05:23:29.588Z,69.52
2018-12-09T05:24:32.076Z,69.79
2018-12-09T05:25:34.532Z,69.62
2018-12-09T05:26:36.997Z,69.53
2018-12-09T05:27:39.569Z,69.75
2018-12-09T05:28:42.079Z,69.55
2018-12-09T05:29:44.533Z,69.35
2018-12-09T05:30:46.983Z,69.60
2018-12-09T05:31:49.439Z,69.63
2018-12-09T05:32:51.912Z,69.48
2018-12-09T05:33:55.119Z,69.35
2018-12-09T05:34:57.598Z,69.34
2018-12-09T05:36:00.064Z,69.37
2018-12-09T05:37:02.551Z,69.73
2018-12-09T05:38:05.004Z,69.96
2018-12-09T05:39:07.535Z,70.35
2018-12-09T05:40:11.919Z,70.64
2018-12-09T05:41:14.579Z,70.57
2018-12-09T05:42:17.073Z,70.51
2018-12-09T05:43:19.545Z,70.47
2018-12-09T05:44:21.991Z,70.64
2018-12-09T05:45:24.452Z,70.66
2018-12-09T05:46:27.005Z,70.62
2018-12-09T05:47:29.499Z,70.90
2018-12-09T05:48:32.255Z,70.73
2018-12-09T05:49:35.024Z,71.16
2018-12-09T05:50:37.517Z,70.70
2018-12-09T05:51:40.019Z,70.71
2018-12-09T05:52:42.509Z,70.70
2018-12-09T05:53:44.950Z,70.90
2018-12-09T05:54:47.413Z,70.95
2018-12-09T05:55:49.900Z,70.61
2018-12-09T05:56:52.391Z,69.49
2018-12-09T05:57:54.971Z,69.30
2018-12-09T05:58:58.052Z,68.88
2018-12-09T06:00:00.983Z,68.63
2018-12-09T06:01:03.452Z,68.77
2018-12-09T06:02:17.888Z,69.53
2018-12-09T06:03:21.203Z,69.47
2018-12-09T06:04:23.647Z,69.67
2018-12-09T06:05:26.107Z,69.57
2018-12-09T06:06:28.583Z,70.22
2018-12-09T06:07:31.454Z,70.25
2018-12-09T06:08:33.929Z,70.04
2018-12-09T06:09:36.363Z,70.60
2018-12-09T06:10:38.803Z,70.87
2018-12-09T06:11:41.261Z,71.04
2018-12-09T06:12:43.744Z,70.60
2018-12-09T06:13:46.735Z,70.62
2018-12-09T06:14:49.173Z,70.82
2018-12-09T06:15:51.636Z,70.88
2018-12-09T06:16:54.478Z,71.05
2018-12-09T06:17:56.992Z,70.66
2018-12-09T06:18:59.460Z,70.04
2018-12-09T06:20:01.907Z,70.57
2018-12-09T06:21:04.383Z,70.62
2018-12-09T06:22:07.698Z,70.65
2018-12-09T06:23:10.163Z,70.76
2018-12-09T06:24:12.642Z,70.83
2018-12-09T06:25:15.474Z,71.20
2018-12-09T06:26:17.907Z,71.34
2018-12-09T06:27:20.911Z,70.96
2018-12-09T06:28:23.722Z,70.91
2018-12-09T06:29:26.187Z,71.01
2018-12-09T06:30:28.759Z,71.35
2018-12-09T06:31:31.219Z,71.47
2018-12-09T06:32:33.719Z,71.35
2018-12-09T06:33:36.183Z,71.25
2018-12-09T06:34:38.645Z,71.76
2018-12-09T06:35:41.095Z,71.59
2018-12-09T06:36:43.539Z,71.87
2018-12-09T06:37:46.514Z,72.22
2018-12-09T06:38:48.952Z,72.34
2018-12-09T06:39:51.389Z,72.24
2018-12-09T06:40:53.840Z,72.18
2018-12-09T06:41:56.319Z,72.08
2018-12-09T06:42:58.771Z,72.14
2018-12-09T06:44:01.408Z,72.22
2018-12-09T06:45:04.179Z,72.37
2018-12-09T06:46:06.647Z,72.76
2018-12-09T06:47:09.078Z,72.28
2018-12-09T06:48:11.531Z,72.59
2018-12-09T06:49:14.028Z,72.03
2018-12-09T06:50:16.471Z,72.50
2018-12-09T06:51:18.918Z,72.09
2018-12-09T06:52:21.769Z,72.18
2018-12-09T06:53:24.246Z,71.34
2018-12-09T06:54:26.729Z,71.47
2018-12-09T06:55:29.162Z,71.27
2018-12-09T06:56:31.607Z,71.44
2018-12-09T06:57:34.060Z,71.16
2018-12-09T06:58:36.528Z,71.43
2018-12-09T06:59:38.991Z,71.73
2018-12-09T07:00:41.431Z,71.40
2018-12-09T07:01:43.960Z,71.22
2018-12-09T07:02:46.399Z,71.39
2018-12-09T07:03:48.863Z,71.26
2018-12-09T07:04:51.315Z,71.82
2018-12-09T07:05:54.187Z,71.82
2018-12-09T07:06:56.711Z,71.81
2018-12-09T07:07:59.231Z,72.01
2018-12-09T07:09:01.846Z,72.14
2018-12-09T07:10:06.187Z,72.28
2018-12-09T07:11:08.638Z,72.25
2018-12-09T07:12:11.074Z,72.40
2018-12-09T07:13:13.616Z,72.04
2018-12-09T07:14:16.073Z,71.63
2018-12-09T07:15:18.511Z,71.60
2018-12-09T07:16:20.960Z,72.19
2018-12-09T07:17:23.419Z,71.91
2018-12-09T07:18:25.853Z,71.69
2018-12-09T07:19:28.312Z,72.27
2018-12-09T07:20:31.128Z,72.12
2018-12-09T07:21:33.562Z,71.82
2018-12-09T07:22:36.012Z,71.92
2018-12-09T07:23:38.654Z,71.45
2018-12-09T07:24:41.122Z,71.51
2018-12-09T07:25:43.559Z,71.67
2018-12-09T07:26:45.993Z,71.58
2018-12-09T07:27:48.440Z,71.49
2018-12-09T07:28:51.015Z,71.15
2018-12-09T07:29:53.637Z,71.39
2018-12-09T07:30:56.074Z,71.27
2018-12-09T07:31:58.503Z,70.97
2018-12-09T07:33:00.949Z,71.37
2018-12-09T07:34:03.795Z,70.97
2018-12-09T07:35:07.238Z,71.35
2018-12-09T07:36:09.707Z,70.85
2018-12-09T07:37:12.141Z,71.54
2018-12-09T07:38:14.585Z,71.25
2018-12-09T07:39:17.056Z,71.45
2018-12-09T07:40:19.532Z,71.62
2018-12-09T07:41:21.983Z,71.68
2018-12-09T07:42:24.410Z,71.74
2018-12-09T07:43:26.883Z,71.48
2018-12-09T07:44:29.586Z,71.27
2018-12-09T07:45:32.043Z,71.25
2018-12-09T07:46:34.515Z,71.13
2018-12-09T07:47:36.956Z,71.31
2018-12-09T07:48:39.824Z,70.79
2018-12-09T07:49:42.305Z,71.13
2018-12-09T07:50:44.774Z,71.03
2018-12-09T07:51:47.248Z,70.72
2018-12-09T07:52:49.722Z,70.96
2018-12-09T07:53:52.212Z,70.36
2018-12-09T07:54:54.648Z,70.34
2018-12-09T07:55:57.107Z,69.94
2018-12-09T07:56:59.635Z,70.30
2018-12-09T07:58:02.062Z,70.32
2018-12-09T07:59:06.762Z,70.38
2018-12-09T08:00:09.183Z,70.50
2018-12-09T08:01:11.623Z,70.08
2018-12-09T08:02:14.055Z,70.30
2018-12-09T08:03:16.487Z,70.74
2018-12-09T08:04:18.912Z,70.41
2018-12-09T08:05:21.334Z,70.27
2018-12-09T08:06:23.879Z,70.24
2018-12-09T08:07:26.304Z,70.21
2018-12-09T08:08:28.743Z,70.09
2018-12-09T08:09:31.263Z,69.94
2018-12-09T08:10:33.693Z,70.08
2018-12-09T08:11:36.139Z,69.59
2018-12-09T08:12:38.575Z,69.80
2018-12-09T08:13:41.020Z,69.14
2018-12-09T08:14:43.467Z,69.70
2018-12-09T08:15:45.910Z,69.14
2018-12-09T08:16:48.354Z,69.31
2018-12-09T08:17:50.804Z,69.44
2018-12-09T08:18:53.239Z,68.95
2018-12-09T08:19:55.761Z,69.59
2018-12-09T08:20:58.198Z,69.37
2018-12-09T08:22:00.714Z,69.11
2018-12-09T08:23:03.225Z,68.67
2018-12-09T08:24:05.650Z,68.95
2018-12-09T08:25:08.176Z,69.00
2018-12-09T08:26:10.710Z,68.61
2018-12-09T08:27:13.273Z,68.93
2018-12-09T08:28:15.732Z,68.88
2018-12-09T08:29:18.173Z,68.60
2018-12-09T08:30:20.625Z,68.45
2018-12-09T08:31:23.067Z,68.73
2018-12-09T08:32:25.507Z,69.07
2018-12-09T08:33:28.035Z,68.59
2018-12-09T08:34:30.462Z,68.53
2018-12-09T08:35:32.911Z,69.13
2018-12-09T08:36:35.346Z,69.14
2018-12-09T08:37:37.812Z,68.49
2018-12-09T08:38:40.265Z,69.32
2018-12-09T08:39:42.706Z,69.53
2018-12-09T08:40:45.200Z,69.89
2018-12-09T08:41:47.663Z,69.40
2018-12-09T08:42:50.132Z,69.24
2018-12-09T08:43:52.575Z,70.03
2018-12-09T08:44:55.003Z,70.29
2018-12-09T08:45:57.440Z,70.31
2018-12-09T08:46:59.972Z,70.62
2018-12-09T08:48:02.443Z,70.25
2018-12-09T08:49:04.898Z,70.28
2018-12-09T08:50:07.338Z,70.88
2018-12-09T08:51:10.290Z,70.63
2018-12-09T08:52:13.053Z,70.66
2018-12-09T08:53:15.504Z,70.78
2018-12-09T08:54:18.045Z,70.57
2018-12-09T08:55:20.665Z,71.16
2018-12-09T08:56:23.134Z,70.88
2018-12-09T08:57:25.610Z,70.97
2018-12-09T08:58:28.058Z,70.95
2018-12-09T08:59:30.767Z,70.73
2018-12-09T09:00:33.241Z,70.51
2018-12-09T09:01:36.419Z,70.17
2018-12-09T09:02:38.858Z,70.24
2018-12-09T09:03:41.502Z,70.60
2018-12-09T09:04:43.946Z,70.42
2018-12-09T09:05:46.396Z,70.40
2018-12-09T09:06:48.831Z,70.13
2018-12-09T09:07:51.257Z,70.01
2018-12-09T09:08:53.701Z,70.09
2018-12-09T09:09:56.151Z,70.07
2018-12-09T09:10:58.595Z,69.99
2018-12-09T09:12:01.055Z,70.25
2018-12-09T09:13:03.546Z,70.25
2018-12-09T09:14:06.011Z,69.99
2018-12-09T09:15:08.467Z,70.43
2018-12-09T09:16:10.925Z,70.17
2018-12-09T09:17:13.384Z,69.99
2018-12-09T09:18:15.950Z,69.66
2018-12-09T09:19:18.497Z,69.98
2018-12-09T09:20:21.011Z,70.07
2018-12-09T09:21:23.660Z,70.01
2018-12-09T09:22:26.093Z,69.95
2018-12-09T09:23:29.379Z,69.98
2018-12-09T09:24:31.831Z,70.04
2018-12-09T09:25:34.291Z,69.12
2018-12-09T09:26:36.741Z,69.30
2018-12-09T09:27:39.228Z,69.33
2018-12-09T09:28:42.973Z,68.95
2018-12-09T09:29:45.704Z,69.32
2018-12-09T09:30:48.160Z,69.57
2018-12-09T09:31:50.636Z,69.37
2018-12-09T09:32:53.086Z,69.17
2018-12-09T09:33:55.542Z,68.82
2018-12-09T09:34:57.986Z,69.03
2018-12-09T09:36:00.456Z,69.21
2018-12-09T09:37:02.921Z,68.87
2018-12-09T09:38:05.417Z,68.69
2018-12-09T09:39:07.929Z,68.86
2018-12-09T09:40:10.397Z,68.44
2018-12-09T09:41:12.936Z,69.15
2018-12-09T09:42:15.436Z,68.46
2018-12-09T09:43:17.876Z,68.62
2018-12-09T09:44:20.628Z,68.17
2018-12-09T09:45:23.114Z,67.85
2018-12-09T09:46:25.593Z,67.78
2018-12-09T09:47:28.027Z,67.49
2018-12-09T09:48:30.463Z,67.81
2018-12-09T09:49:33.034Z,67.84
2018-12-09T09:50:35.484Z,67.46
2018-12-09T09:51:37.981Z,67.45
2018-12-09T09:52:40.431Z,66.88
2018-12-09T09:53:42.884Z,66.99
2018-12-09T09:54:45.318Z,66.86
2018-12-09T09:55:47.792Z,67.01
2018-12-09T09:56:50.257Z,67.16
2018-12-09T09:57:52.828Z,67.05
2018-12-09T09:58:55.302Z,66.57
2018-12-09T09:59:57.771Z,66.80
2018-12-09T10:01:00.239Z,66.82
2018-12-09T10:02:03.256Z,66.82
2018-12-09T10:03:05.780Z,66.57
2018-12-09T10:04:08.235Z,66.78
2018-12-09T10:05:10.779Z,66.64
2018-12-09T10:06:13.238Z,66.25
2018-12-09T10:07:15.701Z,66.73
2018-12-09T10:08:18.148Z,66.44
2018-12-09T10:09:20.571Z,66.53
2018-12-09T10:10:23.019Z,66.37
2018-12-09T10:11:25.471Z,66.65
2018-12-09T10:12:27.939Z,66.14
2018-12-09T10:13:30.381Z,65.73
2018-12-09T10:14:32.824Z,65.97
2018-12-09T10:15:35.257Z,65.51
2018-12-09T10:16:37.720Z,64.75
2018-12-09T10:17:40.167Z,64.65
2018-12-09T10:18:42.639Z,64.80
2018-12-09T10:19:45.123Z,65.13
2018-12-09T10:20:47.586Z,64.35
2018-12-09T10:21:50.048Z,63.80
2018-12-09T10:22:52.563Z,63.60
2018-12-09T10:23:54.997Z,63.63
2018-12-09T10:24:57.431Z,64.03
2018-12-09T10:25:59.863Z,63.56
2018-12-09T10:27:02.324Z,63.62
2018-12-09T10:28:04.766Z,63.43
2018-12-09T10:29:07.212Z,63.28
2018-12-09T10:30:09.696Z,63.05
2018-12-09T10:31:12.128Z,63.08
2018-12-09T10:32:14.599Z,62.88
2018-12-09T10:33:17.124Z,62.96
2018-12-09T10:34:19.566Z,62.84
2018-12-09T10:35:22.140Z,62.78
2018-12-09T10:36:24.571Z,62.76
2018-12-09T10:37:27.019Z,62.71
2018-12-09T10:38:29.463Z,62.36
2018-12-09T10:39:31.895Z,63.29
2018-12-09T10:40:34.360Z,63.12
2018-12-09T10:41:36.934Z,62.75
2018-12-09T10:42:39.379Z,63.03
2018-12-09T10:43:41.822Z,62.77
2018-12-09T10:44:44.250Z,62.85
2018-12-09T10:45:46.675Z,63.04
2018-12-09T10:46:49.132Z,62.82
2018-12-09T10:47:51.578Z,63.07
2018-12-09T10:48:54.046Z,62.86
2018-12-09T10:49:56.498Z,62.63
2018-12-09T10:50:58.924Z,62.87
2018-12-09T10:52:01.395Z,62.81
2018-12-09T10:53:03.882Z,62.79
2018-12-09T10:54:06.407Z,62.69
2018-12-09T10:55:08.873Z,62.64
2018-12-09T10:56:11.651Z,62.75
2018-12-09T10:57:14.089Z,63.29
2018-12-09T10:58:16.555Z,62.97
2018-12-09T10:59:19.022Z,63.22
2018-12-09T11:01:56.936Z,63.16
2018-12-09T11:02:59.482Z,63.46
2018-12-09T11:04:02.226Z,63.49
2018-12-09T11:05:05.255Z,63.80
2018-12-09T11:06:07.697Z,64.03
2018-12-09T11:07:10.128Z,63.60
2018-12-09T11:08:12.619Z,63.67
2018-12-09T11:09:15.100Z,63.84
2018-12-09T11:10:17.539Z,64.30
2018-12-09T11:11:20.002Z,64.20
2018-12-09T11:12:22.649Z,64.53
2018-12-09T11:13:25.122Z,64.49
2018-12-09T11:14:27.575Z,65.45
2018-12-09T11:15:30.064Z,64.88
2018-12-09T11:16:32.505Z,65.34
2018-12-09T11:17:34.951Z,65.41
2018-12-09T11:18:37.390Z,65.18
2018-12-09T11:19:39.846Z,65.48
2018-12-09T11:20:42.311Z,65.47
2018-12-09T11:21:44.761Z,65.30
2018-12-09T11:22:47.203Z,65.57
2018-12-09T11:23:49.636Z,65.70
2018-12-09T11:24:52.118Z,65.80
2018-12-09T11:25:54.578Z,66.36
2018-12-09T11:26:57.043Z,66.08
2018-12-09T11:27:59.480Z,65.94
2018-12-09T11:29:01.929Z,66.08
2018-12-09T11:30:05.756Z,65.72
2018-12-09T11:31:08.209Z,65.86
2018-12-09T11:32:10.652Z,66.04
2018-12-09T11:33:13.555Z,65.94
2018-12-09T11:34:15.992Z,65.72
2018-12-09T11:35:18.441Z,65.99
2018-12-09T11:36:20.902Z,65.92
2018-12-09T11:37:23.346Z,65.73
2018-12-09T11:38:25.779Z,65.44
2018-12-09T11:39:28.247Z,65.37
2018-12-09T11:40:30.695Z,66.02
2018-12-09T11:41:33.167Z,66.01
2018-12-09T11:42:35.744Z,65.65
2018-12-09T11:43:38.209Z,65.22
2018-12-09T11:44:42.331Z,65.17
2018-12-09T11:45:44.784Z,65.41
2018-12-09T11:46:47.209Z,65.05
2018-12-09T11:47:49.733Z,65.32
2018-12-09T11:48:52.181Z,65.29
2018-12-09T11:49:54.697Z,65.44
2018-12-09T11:50:57.172Z,65.35
2018-12-09T11:51:59.620Z,65.33
2018-12-09T11:53:02.076Z,65.97
2018-12-09T11:54:04.526Z,65.18
2018-12-09T11:55:07.065Z,65.39
2018-12-09T11:56:09.531Z,65.52
2018-12-09T11:57:12.359Z,65.36
2018-12-09T11:58:14.804Z,65.29
2018-12-09T11:59:17.255Z,65.07
2018-12-09T12:00:19.689Z,65.18
2018-12-09T12:01:22.187Z,65.08
2018-12-09T12:02:24.949Z,65.21
2018-12-09T12:03:27.388Z,65.12
2018-12-09T12:04:29.861Z,64.99
2018-12-09T12:05:32.301Z,64.85
2018-12-09T12:06:34.750Z,64.21
2018-12-09T12:07:37.311Z,64.37
2018-12-09T12:08:39.793Z,64.76
2018-12-09T12:09:42.225Z,64.53
2018-12-09T12:10:44.668Z,65.59
2018-12-09T12:11:47.115Z,65.73
2018-12-09T12:12:49.579Z,65.94
2018-12-09T12:13:52.009Z,65.59
2018-12-09T12:14:54.449Z,66.06
2018-12-09T12:15:56.885Z,65.84
2018-12-09T12:16:59.394Z,66.71
2018-12-09T12:18:01.969Z,67.00
2018-12-09T12:19:04.483Z,66.71
2018-12-09T12:20:08.517Z,67.03
2018-12-09T12:21:10.948Z,67.15
2018-12-09T12:22:13.407Z,67.15
2018-12-09T12:23:16.111Z,67.09
2018-12-09T12:24:18.544Z,67.01
2018-12-09T12:25:20.989Z,67.23
2018-12-09T12:26:23.678Z,67.43
2018-12-09T12:27:26.248Z,67.98
2018-12-09T12:28:28.772Z,67.81
2018-12-09T12:29:31.196Z,68.04
2018-12-09T12:30:33.690Z,67.87
2018-12-09T12:31:36.177Z,67.79
2018-12-09T12:32:39.420Z,68.16
2018-12-09T12:33:41.975Z,67.77
2018-12-09T12:34:44.476Z,67.71
2018-12-09T12:35:46.910Z,67.70
2018-12-09T12:36:49.626Z,68.15
2018-12-09T12:37:52.110Z,67.84
2018-12-09T12:38:54.659Z,68.25
2018-12-09T12:39:57.212Z,68.77
2018-12-09T12:40:59.684Z,68.82
2018-12-09T12:42:02.785Z,70.26
2018-12-09T12:43:05.294Z,70.33
2018-12-09T12:44:07.923Z,70.48
2018-12-09T12:45:10.441Z,70.12
2018-12-09T12:46:12.886Z,70.43
2018-12-09T12:47:15.342Z,70.49
2018-12-09T12:48:17.819Z,70.73
2018-12-09T12:49:20.345Z,70.98
2018-12-09T12:50:22.776Z,70.79
2018-12-09T12:51:25.556Z,71.23
2018-12-09T12:52:28.159Z,70.77
2018-12-09T12:53:30.698Z,71.52
2018-12-09T12:54:33.181Z,71.89
2018-12-09T12:55:35.630Z,71.83
2018-12-09T12:56:38.100Z,72.22
2018-12-09T12:57:40.556Z,72.29
2018-12-09T12:58:43.006Z,71.86
2018-12-09T12:59:45.452Z,71.83
2018-12-09T13:00:47.876Z,71.51
2018-12-09T13:01:50.312Z,71.12
2018-12-09T13:02:52.766Z,71.11
2018-12-09T13:03:55.227Z,71.59
2018-12-09T13:04:57.655Z,71.50
2018-12-09T13:06:00.200Z,71.39
2018-12-09T13:07:02.623Z,71.67
2018-12-09T13:08:05.069Z,71.72
2018-12-09T13:09:07.553Z,71.31
2018-12-09T13:10:10.034Z,71.41
2018-12-09T13:11:12.474Z,71.16
2018-12-09T13:12:15.252Z,71.36
2018-12-09T13:13:17.895Z,71.62
2018-12-09T13:14:20.470Z,71.67
2018-12-09T13:15:22.909Z,71.63
2018-12-09T13:16:25.340Z,71.20
2018-12-09T13:17:27.855Z,71.44
2018-12-09T13:18:30.338Z,71.92
2018-12-09T13:19:32.832Z,71.66
2018-12-09T13:20:35.376Z,72.02
2018-12-09T13:21:37.823Z,72.12
2018-12-09T13:22:41.223Z,71.87
2018-12-09T13:23:43.845Z,71.62
2018-12-09T13:24:46.307Z,71.39
2018-12-09T13:25:49.525Z,71.22
2018-12-09T13:26:52.001Z,71.58
2018-12-09T13:27:54.725Z,71.57